Time;durP1;ratioP1;P1;durP2;ratioP2;P2;SDS_P1;SDS_P2;PMS_P1;PMS_P2;Temp;Humidity;BMP_temperature;BMP_pressure;BME280_temperature;BME280_humidity;BME280_pressure;Samples;Min_cycle;Max_cycle;Signal;HPM_P1;HPM_P2
2023/06/01 00:01:52;;;;;;;18.08;11.65;;;13.60;99.90;;;;;;5053585;28;20025;-89
2023/06/01 00:04:17;;;;;;;16.55;11.82;;;13.20;99.90;;;;;;5057323;28;20076;-89
2023/06/01 00:06:44;;;;;;;22.40;11.68;;;13.40;99.90;;;;;;5054221;28;20515;-89
2023/06/01 00:09:09;;;;;;;18.08;10.90;;;13.10;99.90;;;;;;5053499;28;20025;-89
2023/06/01 00:11:35;;;;;;;23.73;11.82;;;13.00;99.90;;;;;;5053888;28;20079;-88
2023/06/01 00:14:01;;;;;;;21.92;11.60;;;13.00;99.90;;;;;;5054181;28;20035;-88
2023/06/01 00:16:28;;;;;;;16.38;11.65;;;13.00;99.90;;;;;;5053262;28;20074;-89
2023/06/01 00:18:56;;;;;;;14.45;11.45;;;13.00;99.90;;;;;;5054115;28;20033;-90
2023/06/01 00:21:21;;;;;;;14.90;12.27;;;13.00;99.90;;;;;;5054152;28;20036;-90
2023/06/01 00:23:47;;;;;;;16.98;11.85;;;13.10;99.90;;;;;;5053072;28;20037;-89
2023/06/01 00:26:13;;;;;;;18.73;11.18;;;13.20;99.90;;;;;;5053781;28;20100;-90
2023/06/01 00:28:39;;;;;;;15.25;11.15;;;13.10;99.90;;;;;;5053794;28;20127;-90
2023/06/01 00:31:04;;;;;;;20.33;11.73;;;13.20;99.90;;;;;;5054173;28;20083;-89
2023/06/01 00:33:30;;;;;;;16.92;11.95;;;13.20;99.90;;;;;;5055657;28;20048;-89
2023/06/01 00:35:56;;;;;;;16.50;11.30;;;13.10;99.90;;;;;;5054053;28;20053;-89
2023/06/01 00:38:21;;;;;;;18.25;11.52;;;13.10;99.90;;;;;;5053151;28;20116;-89
2023/06/01 00:40:50;;;;;;;19.83;11.82;;;13.10;99.90;;;;;;5053504;28;20017;-89
2023/06/01 00:43:17;;;;;;;18.52;12.18;;;13.10;99.90;;;;;;5052598;28;20033;-89
2023/06/01 00:45:43;;;;;;;15.70;10.88;;;13.10;99.90;;;;;;5053516;28;20032;-90
2023/06/01 00:48:09;;;;;;;17.30;11.40;;;13.20;99.90;;;;;;5053760;28;20021;-90
2023/06/01 00:50:35;;;;;;;20.17;10.65;;;13.20;99.90;;;;;;5052963;28;20108;-89
2023/06/01 00:53:03;;;;;;;18.20;11.60;;;13.20;99.90;;;;;;5053520;28;20108;-89
2023/06/01 00:55:29;;;;;;;17.55;10.68;;;13.20;99.90;;;;;;5053563;28;20021;-89
2023/06/01 00:57:55;;;;;;;15.57;10.45;;;13.10;99.90;;;;;;5056232;28;20056;-89
2023/06/01 01:00:22;;;;;;;19.90;10.20;;;13.10;99.90;;;;;;5054197;28;20048;-89
2023/06/01 01:02:48;;;;;;;15.38;10.38;;;13.10;99.90;;;;;;5052928;28;20072;-89
2023/06/01 01:05:15;;;;;;;15.73;10.57;;;13.10;99.90;;;;;;5052538;28;20817;-89
2023/06/01 01:07:59;;;;;;;16.25;10.68;;;13.00;99.90;;;;;;5052948;28;20033;-89
2023/06/01 01:10:32;;;;;;;11.68;9.88;;;13.00;99.90;;;;;;5069562;28;20021;-89
2023/06/01 01:13:15;;;;;;;12.82;10.40;;;13.00;99.90;;;;;;5057321;28;20155;-90
2023/06/01 01:16:14;;;;;;;11.85;9.38;;;13.00;99.90;;;;;;5053057;28;20021;-89
2023/06/01 01:19:10;;;;;;;16.88;9.88;;;12.90;99.90;;;;;;5052212;28;20372;-89
2023/06/01 01:21:40;;;;;;;13.95;9.63;;;12.80;99.90;;;;;;5035763;28;20040;-90
2023/06/01 01:24:18;;;;;;;11.98;9.95;;;12.80;99.90;;;;;;5053036;28;20037;-90
2023/06/01 01:27:10;;;;;;;19.15;9.77;;;12.70;99.90;;;;;;5052567;28;20033;-89
2023/06/01 01:29:37;;;;;;;21.15;9.15;;;12.60;99.90;;;;;;5066239;28;20110;-89
2023/06/01 01:32:05;;;;;;;16.90;9.07;;;12.60;99.90;;;;;;5073003;28;20021;-89
2023/06/01 01:34:32;;;;;;;17.13;10.00;;;12.60;99.90;;;;;;5072760;28;20099;-89
2023/06/01 01:36:58;;;;;;;14.38;10.23;;;12.60;99.90;;;;;;5096171;22;20066;-89
2023/06/01 01:39:24;;;;;;;10.55;9.10;;;12.60;99.90;;;;;;5093343;28;20118;-89
2023/06/01 01:41:49;;;;;;;12.85;7.95;;;12.60;99.90;;;;;;5092540;28;20113;-90
2023/06/01 01:44:16;;;;;;;10.18;9.18;;;12.70;99.90;;;;;;5093441;28;20036;-89
2023/06/01 01:46:52;;;;;;;17.63;9.25;;;12.80;99.90;;;;;;5092650;28;20074;-90
2023/06/01 01:49:45;;;;;;;13.75;8.63;;;12.20;99.90;;;;;;5094361;28;20471;-88
2023/06/01 01:52:41;;;;;;;12.57;8.65;;;12.80;99.90;;;;;;5094638;28;20028;-90
2023/06/01 01:55:08;;;;;;;14.88;8.85;;;12.90;99.90;;;;;;5075950;28;20368;-89
2023/06/01 01:57:35;;;;;;;11.85;8.52;;;13.20;99.90;;;;;;5092347;28;20353;-89
2023/06/01 02:00:02;;;;;;;12.98;8.38;;;12.80;99.90;;;;;;5092812;28;20050;-88
2023/06/01 02:02:29;;;;;;;14.52;9.30;;;13.10;99.90;;;;;;5092309;28;20032;-88
2023/06/01 02:04:56;;;;;;;16.90;8.35;;;12.80;99.90;;;;;;5093024;28;20369;-89
2023/06/01 02:07:22;;;;;;;15.70;9.20;;;12.80;99.90;;;;;;5093139;28;20016;-89
2023/06/01 02:09:47;;;;;;;16.70;8.98;;;12.80;99.90;;;;;;5091804;28;20024;-89
2023/06/01 02:12:13;;;;;;;12.52;8.85;;;12.80;99.90;;;;;;5092631;28;20020;-89
2023/06/01 02:14:38;;;;;;;16.48;9.45;;;12.40;99.90;;;;;;5093574;28;20467;-89
2023/06/01 02:17:05;;;;;;;11.57;8.70;;;12.80;99.90;;;;;;5096463;28;20028;-88
2023/06/01 02:19:30;;;;;;;13.02;9.07;;;12.80;99.90;;;;;;5096806;28;20020;-88
2023/06/01 02:21:56;;;;;;;15.10;8.98;;;12.90;99.90;;;;;;5095575;28;20075;-89
2023/06/01 02:24:22;;;;;;;12.88;8.57;;;12.90;99.90;;;;;;5096399;28;20472;-88
2023/06/01 02:26:48;;;;;;;14.13;8.77;;;12.90;99.90;;;;;;5096204;28;20039;-88
2023/06/01 02:29:14;;;;;;;12.98;8.80;;;12.80;99.90;;;;;;5096261;28;20028;-89
2023/06/01 02:31:40;;;;;;;23.25;10.07;;;12.90;99.90;;;;;;5096802;28;20031;-88
2023/06/01 02:34:06;;;;;;;16.60;9.32;;;12.50;99.90;;;;;;5114374;28;20032;-89
2023/06/01 02:36:31;;;;;;;12.07;8.73;;;12.80;99.90;;;;;;5098095;28;20036;-89
2023/06/01 02:38:58;;;;;;;13.77;8.63;;;12.80;99.90;;;;;;5096220;28;20115;-88
2023/06/01 02:41:24;;;;;;;15.32;9.07;;;12.80;99.90;;;;;;5096391;28;20043;-88
2023/06/01 02:43:50;;;;;;;11.93;9.02;;;12.90;99.90;;;;;;5096728;28;20047;-89
2023/06/01 02:46:17;;;;;;;13.02;8.70;;;12.70;99.90;;;;;;5097390;28;20020;-88
2023/06/01 02:48:43;;;;;;;13.48;8.73;;;12.80;99.90;;;;;;5096759;28;20028;-89
2023/06/01 02:51:09;;;;;;;12.77;9.43;;;12.80;99.90;;;;;;5095302;28;20027;-88
2023/06/01 02:53:35;;;;;;;19.92;9.85;;;12.80;99.90;;;;;;5100591;28;20106;-89
2023/06/01 02:56:00;;;;;;;16.95;9.15;;;12.80;99.90;;;;;;5099262;28;20459;-89
2023/06/01 02:58:29;;;;;;;15.00;9.23;;;12.80;99.90;;;;;;5095708;28;20039;-89
2023/06/01 03:00:55;;;;;;;9.73;8.38;;;12.80;99.90;;;;;;5095590;28;20051;-87
2023/06/01 03:03:21;;;;;;;11.27;8.77;;;13.80;99.90;;;;;;5095705;28;20036;-90
2023/06/01 03:05:47;;;;;;;12.55;8.00;;;12.80;99.90;;;;;;5095533;28;20020;-90
2023/06/01 03:08:13;;;;;;;13.73;8.73;;;12.80;99.90;;;;;;5095941;28;20032;-89
2023/06/01 03:10:39;;;;;;;13.00;9.07;;;12.90;99.90;;;;;;5095222;28;20367;-88
2023/06/01 03:13:04;;;;;;;18.73;9.00;;;13.00;99.90;;;;;;5094305;28;20036;-88
2023/06/01 03:15:30;;;;;;;19.20;9.18;;;13.00;99.90;;;;;;5095121;28;20020;-88
2023/06/01 03:17:55;;;;;;;10.35;8.57;;;13.00;99.90;;;;;;5094349;28;20480;-88
2023/06/01 03:20:22;;;;;;;14.15;9.27;;;12.90;99.90;;;;;;5095199;28;20024;-88
2023/06/01 03:22:48;;;;;;;13.70;9.07;;;13.80;99.90;;;;;;5094994;28;20091;-87
2023/06/01 03:25:13;;;;;;;21.10;9.45;;;12.80;99.90;;;;;;5094073;28;20162;-88
2023/06/01 03:27:40;;;;;;;13.70;8.93;;;12.80;99.90;;;;;;5095068;28;20016;-90
2023/06/01 03:30:12;;;;;;;11.02;7.95;;;12.80;99.90;;;;;;5095719;28;20042;-90
2023/06/01 03:32:44;;;;;;;13.27;8.85;;;12.80;99.90;;;;;;5094734;28;20024;-89
2023/06/01 03:35:11;;;;;;;13.57;9.43;;;12.80;99.90;;;;;;5095168;28;20074;-88
2023/06/01 03:37:38;;;;;;;14.77;8.52;;;12.80;99.90;;;;;;5094812;28;20036;-89
2023/06/01 03:40:10;;;;;;;12.27;8.55;;;12.80;99.90;;;;;;5098435;28;20501;-88
2023/06/01 03:42:45;;;;;;;14.52;9.45;;;12.80;99.90;;;;;;5094775;28;20032;-89
2023/06/01 03:45:11;;;;;;;15.50;9.40;;;12.80;99.90;;;;;;5095050;28;20024;-85
2023/06/01 03:47:37;;;;;;;17.20;9.40;;;12.80;99.90;;;;;;5093578;28;20024;-88
2023/06/01 03:50:06;;;;;;;13.68;8.82;;;13.10;99.90;;;;;;5094534;28;20020;-88
2023/06/01 03:55:01;;;;;;;14.70;9.60;;;12.80;99.90;;;;;;5055736;28;20048;-88
2023/06/01 03:57:27;;;;;;;17.75;9.15;;;12.70;99.90;;;;;;5069696;28;20118;-89
2023/06/01 03:59:52;;;;;;;15.38;8.68;;;12.70;99.90;;;;;;5055762;28;20021;-88
2023/06/01 04:02:19;;;;;;;16.10;9.10;;;13.00;99.90;;;;;;5053883;28;20032;-88
2023/06/01 04:04:47;;;;;;;12.77;9.18;;;12.70;99.90;;;;;;5054137;28;20044;-89
2023/06/01 04:07:18;;;;;;;16.10;9.07;;;12.70;99.90;;;;;;5054293;28;20021;-89
2023/06/01 04:09:48;;;;;;;12.82;8.80;;;12.70;99.90;;;;;;5054449;28;20033;-90
2023/06/01 04:12:15;;;;;;;14.13;9.10;;;13.00;99.90;;;;;;5054662;28;20477;-89
2023/06/01 04:14:41;;;;;;;11.65;8.30;;;12.90;99.90;;;;;;5053724;28;20028;-89
2023/06/01 04:17:06;;;;;;;17.73;8.60;;;12.70;99.90;;;;;;5053891;28;20112;-88
2023/06/01 04:19:34;;;;;;;15.70;9.05;;;12.80;99.90;;;;;;5053418;28;20022;-88
2023/06/01 04:22:00;;;;;;;17.05;8.75;;;13.60;99.90;;;;;;5053290;28;20033;-88
2023/06/01 04:24:26;;;;;;;13.32;8.27;;;13.10;99.90;;;;;;5053945;28;20032;-89
2023/06/01 04:26:51;;;;;;;13.77;8.15;;;12.60;99.90;;;;;;5053915;28;20075;-89
2023/06/01 04:29:19;;;;;;;13.82;8.82;;;12.70;99.90;;;;;;5053142;28;20404;-89
2023/06/01 04:31:45;;;;;;;16.77;8.52;;;12.80;99.90;;;;;;5053998;28;20021;-88
2023/06/01 04:34:12;;;;;;;11.32;7.97;;;12.90;99.90;;;;;;5061614;28;20032;-88
2023/06/01 04:36:39;;;;;;;12.55;8.23;;;12.90;99.90;;;;;;5052548;28;20100;-89
2023/06/01 04:39:08;;;;;;;14.90;7.95;;;13.00;99.90;;;;;;5054125;28;20033;-88
2023/06/01 04:41:35;;;;;;;13.18;8.40;;;12.80;99.90;;;;;;5053641;28;20029;-89
2023/06/01 04:44:05;;;;;;;16.67;8.88;;;12.80;99.90;;;;;;5053225;28;20044;-88
2023/06/01 04:46:30;;;;;;;16.40;9.88;;;12.80;99.90;;;;;;5053713;28;20350;-88
2023/06/01 04:48:58;;;;;;;20.00;8.82;;;12.80;99.90;;;;;;5053487;28;20028;-88
2023/06/01 04:51:24;;;;;;;13.77;8.45;;;12.80;99.90;;;;;;5053322;28;20033;-88
2023/06/01 04:53:51;;;;;;;16.33;8.75;;;12.80;99.90;;;;;;5052781;28;20110;-88
2023/06/01 04:56:26;;;;;;;11.52;8.35;;;13.00;99.90;;;;;;5054875;28;20412;-89
2023/06/01 04:58:53;;;;;;;23.63;9.85;;;12.60;99.90;;;;;;5055292;28;20033;-89
2023/06/01 05:01:18;;;;;;;24.60;8.52;;;12.80;99.90;;;;;;5055405;28;20017;-87
2023/06/01 05:03:45;;;;;;;15.60;8.52;;;12.60;99.90;;;;;;5056619;28;20111;-90
2023/06/01 05:06:12;;;;;;;15.63;8.82;;;12.40;99.90;;;;;;5055110;28;20017;-89
2023/06/01 05:08:41;;;;;;;16.83;8.65;;;12.60;99.90;;;;;;5053388;28;20112;-89
2023/06/01 05:11:08;;;;;;;15.20;8.73;;;12.90;99.90;;;;;;5053086;28;20021;-89
2023/06/01 05:13:35;;;;;;;14.50;9.25;;;13.00;99.90;;;;;;5053466;28;20059;-89
2023/06/01 05:16:01;;;;;;;13.85;8.43;;;12.90;99.90;;;;;;5053601;28;20031;-90
2023/06/01 05:18:26;;;;;;;16.63;9.02;;;13.00;99.90;;;;;;5059759;28;20033;-88
2023/06/01 05:20:52;;;;;;;17.10;9.23;;;13.10;99.90;;;;;;5062685;28;20048;-90
2023/06/01 05:23:19;;;;;;;17.85;9.25;;;13.70;99.90;;;;;;5053534;28;20080;-89
2023/06/01 05:25:44;;;;;;;15.55;9.02;;;13.20;99.90;;;;;;5052843;28;20036;-90
2023/06/01 05:28:10;;;;;;;18.52;8.65;;;13.30;99.90;;;;;;5060107;28;20025;-89
2023/06/01 05:30:36;;;;;;;22.10;9.45;;;13.20;99.90;;;;;;5053118;28;20117;-89
2023/06/01 05:33:03;;;;;;;15.52;8.90;;;13.80;99.90;;;;;;5052978;28;20076;-89
2023/06/01 05:35:29;;;;;;;17.05;8.88;;;13.40;99.90;;;;;;5052940;28;20059;-88
2023/06/01 05:37:54;;;;;;;21.27;9.20;;;13.30;99.90;;;;;;5052768;28;20395;-89
2023/06/01 05:40:20;;;;;;;14.77;9.02;;;13.30;99.90;;;;;;5051928;28;20021;-89
2023/06/01 05:42:46;;;;;;;16.73;9.27;;;13.30;99.90;;;;;;5052232;28;20040;-89
2023/06/01 05:45:12;;;;;;;15.05;9.50;;;13.10;99.90;;;;;;5052811;28;20021;-89
2023/06/01 05:47:38;;;;;;;20.85;9.55;;;13.60;99.90;;;;;;5052497;28;20029;-89
2023/06/01 05:50:04;;;;;;;11.05;7.97;;;13.90;99.90;;;;;;5056448;28;20657;-89
2023/06/01 05:52:30;;;;;;;18.77;9.77;;;13.20;99.90;;;;;;5056957;28;20025;-88
2023/06/01 05:54:56;;;;;;;19.60;9.98;;;13.10;99.90;;;;;;5143329;22;20044;-89
2023/06/01 05:57:22;;;;;;;17.90;9.55;;;13.10;99.90;;;;;;5097376;28;20137;-89
2023/06/01 05:59:47;;;;;;;15.73;8.38;;;13.10;99.90;;;;;;5096684;28;20467;-92
2023/06/01 06:02:13;;;;;;;15.35;9.77;;;13.10;99.90;;;;;;5096975;28;20032;-91
2023/06/01 06:04:40;;;;;;;16.48;10.98;;;13.10;99.90;;;;;;5096147;28;20403;-89
2023/06/01 06:07:06;;;;;;;19.90;9.43;;;14.00;99.90;;;;;;5095339;28;20022;-89
2023/06/01 06:09:31;;;;;;;17.95;8.27;;;13.20;99.90;;;;;;5095902;28;20024;-89
2023/06/01 06:11:57;;;;;;;14.88;9.48;;;13.20;99.90;;;;;;5095908;28;20085;-89
2023/06/01 06:14:23;;;;;;;18.05;8.88;;;13.30;99.90;;;;;;5094458;28;20036;-89
2023/06/01 06:17:02;;;;;;;12.98;9.27;;;13.20;99.90;;;;;;5095126;28;20020;-89
2023/06/01 06:19:28;;;;;;;20.92;8.45;;;13.40;99.90;;;;;;5096095;28;20391;-89
2023/06/01 06:21:53;;;;;;;11.95;8.02;;;14.10;99.90;;;;;;5101555;28;20012;-89
2023/06/01 06:24:25;;;;;;;15.00;7.93;;;13.10;99.90;;;;;;5096132;28;20052;-89
2023/06/01 06:26:50;;;;;;;20.95;8.93;;;15.10;99.90;;;;;;5096172;28;20023;-89
2023/06/01 06:29:31;;;;;;;9.65;7.32;;;14.50;99.90;;;;;;5096536;28;20383;-89
2023/06/01 06:31:57;;;;;;;20.70;8.55;;;14.50;99.90;;;;;;5100355;28;20085;-89
2023/06/01 06:34:38;;;;;;;12.75;7.63;;;14.60;99.90;;;;;;5099400;28;20024;-89
2023/06/01 06:37:07;;;;;;;;;;;14.70;99.90;;;;;;5073442;28;20028;-89
2023/06/01 06:39:43;;;;;;;;;;;;;;;;;;;;;
2023/06/01 06:42:15;;;;;;;11.40;7.72;;;13.40;99.90;;;;;;5107321;28;20110;-89
2023/06/01 06:44:58;;;;;;;18.02;7.63;;;15.10;99.90;;;;;;5098273;28;20055;-89
2023/06/01 06:47:24;;;;;;;11.30;7.15;;;14.40;99.90;;;;;;5093790;28;20017;-89
2023/06/01 06:49:51;;;;;;;10.07;7.60;;;14.50;99.90;;;;;;5095800;28;20058;-90
2023/06/01 06:52:22;;;;;;;13.75;7.90;;;13.20;99.90;;;;;;5096570;28;20476;-90
2023/06/01 06:54:48;;;;;;;16.95;8.20;;;13.40;99.90;;;;;;5095100;28;20534;-87
2023/06/01 06:57:13;;;;;;;11.15;7.38;;;13.40;99.90;;;;;;5093729;28;20017;-86
2023/06/01 06:59:39;;;;;;;17.25;8.27;;;13.50;99.90;;;;;;5093197;28;20020;-85
2023/06/01 07:02:05;;;;;;;12.27;7.90;;;13.40;99.90;;;;;;5093576;28;20058;-85
2023/06/01 07:04:31;;;;;;;10.68;6.80;;;13.40;99.90;;;;;;5094189;28;20085;-87
2023/06/01 07:06:57;;;;;;;9.40;7.35;;;13.40;99.90;;;;;;5094628;28;20031;-87
2023/06/01 07:09:22;;;;;;;13.98;6.78;;;14.20;99.90;;;;;;5094716;28;20020;-86
2023/06/01 07:11:48;;;;;;;16.10;7.32;;;13.60;99.90;;;;;;5093550;28;20023;-86
2023/06/01 07:14:14;;;;;;;12.77;6.40;;;13.90;99.90;;;;;;5094434;28;20020;-86
2023/06/01 07:16:40;;;;;;;14.32;7.18;;;13.70;99.90;;;;;;5094198;28;20020;-86
2023/06/01 07:19:07;;;;;;;16.50;7.13;;;13.80;99.90;;;;;;5093814;28;20035;-86
2023/06/01 07:21:32;;;;;;;24.42;6.97;;;13.90;99.90;;;;;;5094578;28;20023;-83
2023/06/01 07:23:58;;;;;;;16.45;6.85;;;13.80;99.90;;;;;;5095076;28;20040;-88
2023/06/01 07:26:28;;;;;;;12.68;6.55;;;13.90;99.90;;;;;;5094246;28;20016;-86
2023/06/01 07:28:56;;;;;;;12.70;6.30;;;14.20;99.90;;;;;;5094531;28;20101;-85
2023/06/01 07:31:22;;;;;;;9.63;6.25;;;13.90;99.90;;;;;;5093987;28;20024;-87
2023/06/01 07:33:48;;;;;;;12.80;6.55;;;13.80;99.90;;;;;;5094417;28;20053;-86
2023/06/01 07:36:17;;;;;;;9.25;5.85;;;13.80;99.90;;;;;;5094826;28;20024;-86
2023/06/01 07:38:42;;;;;;;12.82;6.47;;;14.00;99.90;;;;;;5093567;28;20380;-86
2023/06/01 07:41:09;;;;;;;12.85;6.30;;;13.40;99.90;;;;;;5094495;28;20024;-86
2023/06/01 07:43:38;;;;;;;6.78;5.50;;;14.00;99.90;;;;;;5094180;28;20063;-86
2023/06/01 07:46:04;;;;;;;7.90;5.97;;;14.50;99.90;;;;;;5094025;28;20024;-84
2023/06/01 07:48:35;;;;;;;8.25;5.95;;;15.20;99.90;;;;;;5094230;28;20471;-84
2023/06/01 07:51:04;;;;;;;12.60;5.85;;;13.30;99.90;;;;;;5094074;28;20375;-83
2023/06/01 07:53:32;;;;;;;12.95;6.78;;;14.10;99.90;;;;;;5093333;28;20044;-84
2023/06/01 07:55:57;;;;;;;9.80;6.55;;;14.50;99.90;;;;;;5094110;28;20388;-84
2023/06/01 07:58:23;;;;;;;14.20;6.25;;;14.10;99.90;;;;;;5094072;28;20020;-86
2023/06/01 08:00:49;;;;;;;8.80;5.57;;;14.10;99.90;;;;;;5093700;28;20031;-85
2023/06/01 08:03:26;;;;;;;15.45;6.57;;;13.40;99.90;;;;;;5082804;28;20384;-86
2023/06/01 08:05:57;;;;;;;9.00;6.22;;;14.20;99.90;;;;;;5094900;28;20028;-85
2023/06/01 08:08:23;;;;;;;12.60;6.18;;;14.00;99.90;;;;;;5095259;28;20051;-86
2023/06/01 08:10:49;;;;;;;10.35;5.88;;;14.10;99.90;;;;;;5094166;28;20028;-86
2023/06/01 08:13:15;;;;;;;9.70;5.15;;;14.20;99.90;;;;;;5093135;28;20028;-87
2023/06/01 08:15:42;;;;;;;13.77;6.18;;;14.30;99.90;;;;;;5092673;28;20047;-86
2023/06/01 08:18:08;;;;;;;7.13;5.10;;;14.40;99.90;;;;;;5093940;28;20103;-88
2023/06/01 08:20:35;;;;;;;6.45;4.93;;;14.40;99.90;;;;;;5092904;28;20027;-88
2023/06/01 08:23:02;;;;;;;9.32;4.90;;;14.50;99.90;;;;;;5093581;28;20131;-86
2023/06/01 08:25:28;;;;;;;12.27;4.88;;;14.50;99.90;;;;;;5089986;28;20109;-87
2023/06/01 08:27:54;;;;;;;12.32;4.97;;;14.60;99.90;;;;;;5076396;28;20438;-86
2023/06/01 08:30:20;;;;;;;12.02;4.85;;;14.60;99.90;;;;;;5082974;28;20601;-87
2023/06/01 08:32:45;;;;;;;14.65;5.30;;;14.60;99.90;;;;;;5092621;28;20023;-87
2023/06/01 08:35:11;;;;;;;11.55;5.28;;;14.90;99.90;;;;;;5092077;28;20028;-86
2023/06/01 08:37:36;;;;;;;12.20;5.65;;;14.70;99.90;;;;;;5092512;28;20027;-86
2023/06/01 08:40:08;;;;;;;7.60;4.95;;;14.40;99.90;;;;;;5091733;28;20028;-86
2023/06/01 08:43:05;;;;;;;7.63;4.65;;;14.60;99.90;;;;;;5091025;28;20410;-86
2023/06/01 08:45:32;;;;;;;8.40;5.45;;;14.70;99.90;;;;;;5076966;28;20383;-84
2023/06/01 08:47:58;;;;;;;8.07;5.57;;;14.70;99.90;;;;;;5078692;28;20023;-86
2023/06/01 08:50:26;;;;;;;6.65;4.60;;;14.80;99.90;;;;;;5090949;28;20020;-86
2023/06/01 08:52:55;;;;;;;5.32;4.53;;;14.80;99.90;;;;;;5090967;28;20056;-87
2023/06/01 08:55:21;;;;;;;9.32;5.45;;;14.90;99.90;;;;;;5090244;28;20508;-87
2023/06/01 08:57:47;;;;;;;6.93;4.40;;;14.90;99.90;;;;;;5089555;28;20043;-87
2023/06/01 09:00:13;;;;;;;9.88;5.10;;;14.90;99.90;;;;;;5090650;28;20546;-86
2023/06/01 09:02:40;;;;;;;6.75;4.53;;;15.00;99.90;;;;;;5088677;28;20059;-87
2023/06/01 09:05:06;;;;;;;11.60;4.95;;;15.00;99.90;;;;;;5086426;28;20446;-86
2023/06/01 09:07:31;;;;;;;16.27;5.75;;;15.00;99.90;;;;;;5086967;28;20377;-86
2023/06/01 09:09:57;;;;;;;8.77;4.95;;;16.00;99.90;;;;;;5086990;28;20081;-86
2023/06/01 09:12:28;;;;;;;11.32;5.53;;;15.10;99.90;;;;;;5088909;28;20111;-86
2023/06/01 09:15:16;;;;;;;7.47;5.55;;;14.80;99.90;;;;;;5088423;28;20028;-86
2023/06/01 09:17:44;;;;;;;6.65;4.97;;;14.80;99.90;;;;;;5089027;28;20016;-86
2023/06/01 09:20:23;;;;;;;8.35;5.63;;;14.80;99.90;;;;;;5092779;28;20036;-86
2023/06/01 09:22:49;;;;;;;8.50;5.28;;;14.80;99.90;;;;;;5091948;28;20468;-86
2023/06/01 09:25:15;;;;;;;9.60;5.85;;;15.00;99.90;;;;;;5092364;28;20127;-86
2023/06/01 09:27:50;;;;;;;8.35;5.07;;;15.00;99.90;;;;;;5096140;28;20383;-86
2023/06/01 09:30:17;;;;;;;14.57;5.15;;;15.00;99.90;;;;;;5094317;28;20028;-84
2023/06/01 09:32:47;;;;;;;6.93;5.25;;;15.10;99.90;;;;;;5091397;28;20031;-84
2023/06/01 09:35:13;;;;;;;12.27;5.70;;;15.10;99.90;;;;;;5092607;28;20024;-83
2023/06/01 09:37:54;;;;;;;7.85;5.00;;;15.20;99.90;;;;;;5092067;28;20024;-83
2023/06/01 09:40:20;;;;;;;9.02;5.63;;;14.90;99.90;;;;;;5092458;28;20050;-84
2023/06/01 09:42:49;;;;;;;5.35;4.85;;;15.30;99.90;;;;;;5091344;28;20527;-84
2023/06/01 09:45:20;;;;;;;9.35;6.50;;;14.70;99.90;;;;;;5091480;28;20032;-84
2023/06/01 09:47:50;;;;;;;5.57;4.97;;;15.30;99.90;;;;;;5091211;28;20108;-84
2023/06/01 09:50:35;;;;;;;7.07;5.80;;;15.30;99.90;;;;;;5092108;28;20292;-84
2023/06/01 09:53:01;;;;;;;9.38;5.78;;;15.40;99.90;;;;;;5091485;28;20028;-84
2023/06/01 09:55:26;;;;;;;10.20;5.60;;;15.30;99.90;;;;;;5091666;28;20062;-84
2023/06/01 09:57:52;;;;;;;8.27;5.75;;;14.90;99.90;;;;;;5091532;28;20036;-84
2023/06/01 10:00:24;;;;;;;8.57;6.30;;;15.40;99.90;;;;;;5090132;28;20024;-85
2023/06/01 10:02:54;;;;;;;8.23;6.47;;;15.40;99.90;;;;;;5089965;28;20110;-84
2023/06/01 10:05:20;;;;;;;8.55;5.95;;;15.50;99.90;;;;;;5089989;28;20032;-85
2023/06/01 10:07:47;;;;;;;7.15;5.70;;;15.40;99.90;;;;;;5089460;28;20027;-85
2023/06/01 10:10:15;;;;;;;8.70;5.78;;;15.80;99.90;;;;;;5090586;28;20020;-85
2023/06/01 10:12:41;;;;;;;5.97;4.95;;;15.50;99.90;;;;;;5089333;28;20024;-85
2023/06/01 10:15:10;;;;;;;8.20;5.43;;;15.30;99.90;;;;;;5086094;28;20016;-85
2023/06/01 10:17:42;;;;;;;10.57;6.50;;;15.50;99.90;;;;;;5089018;28;20040;-85
2023/06/01 10:20:11;;;;;;;11.93;5.30;;;15.50;99.90;;;;;;5090535;28;20017;-84
2023/06/01 10:22:41;;;;;;;7.20;5.65;;;15.60;99.90;;;;;;5090690;28;20029;-85
2023/06/01 10:25:10;;;;;;;11.10;6.68;;;15.70;99.90;;;;;;5091154;28;20060;-87
2023/06/01 10:27:41;;;;;;;10.27;6.32;;;15.80;99.90;;;;;;5090139;28;20056;-85
2023/06/01 10:30:07;;;;;;;;;;;16.00;99.90;;;;;;5092895;28;20028;-84
2023/06/01 10:32:36;;;;;;;7.43;6.25;;;15.70;99.90;;;;;;5092447;28;19910;-82
2023/06/01 10:35:02;;;;;;;11.80;6.18;;;15.70;99.90;;;;;;5090286;28;20027;-84
2023/06/01 10:37:28;;;;;;;9.70;6.20;;;15.70;99.90;;;;;;5091340;28;20020;-84
2023/06/01 10:40:18;;;;;;;7.32;6.40;;;15.70;99.90;;;;;;5092549;28;20517;-85
2023/06/01 10:42:44;;;;;;;10.88;6.88;;;15.80;99.90;;;;;;5091760;28;20024;-85
2023/06/01 10:45:39;;;;;;;11.18;6.97;;;15.90;99.90;;;;;;5093279;28;20555;-84
2023/06/01 10:48:07;;;;;;;11.55;6.38;;;15.90;99.90;;;;;;5092687;28;20031;-85
2023/06/01 10:50:35;;;;;;;11.27;5.63;;;15.90;99.90;;;;;;5098022;28;20107;-85
2023/06/01 10:53:30;;;;;;;15.90;7.30;;;16.00;99.90;;;;;;5099862;28;20471;-84
2023/06/01 10:56:24;;;;;;;11.38;6.28;;;15.90;99.90;;;;;;5095171;28;20503;-84
2023/06/01 10:59:10;;;;;;;10.52;6.82;;;15.90;99.90;;;;;;5093940;28;20043;-84
2023/06/01 11:01:46;;;;;;;9.88;6.95;;;15.30;99.90;;;;;;5094077;28;20034;-85
2023/06/01 11:04:13;;;;;;;10.07;6.53;;;16.00;99.90;;;;;;5093313;28;20078;-84
2023/06/01 11:06:42;;;;;;;13.95;6.55;;;16.00;99.90;;;;;;5094068;28;20019;-84
2023/06/01 11:09:10;;;;;;;14.02;6.65;;;16.70;99.90;;;;;;5093910;28;20028;-84
2023/06/01 11:11:48;;;;;;;8.85;7.28;;;16.00;99.90;;;;;;5094355;28;20024;-84
2023/06/01 11:14:15;;;;;;;11.05;6.75;;;16.00;99.90;;;;;;5095588;28;20115;-85
2023/06/01 11:16:40;;;;;;;18.52;7.05;;;16.80;99.90;;;;;;5094944;28;20024;-84
2023/06/01 11:19:08;;;;;;;9.68;7.57;;;15.60;99.90;;;;;;5095701;28;20428;-85
2023/06/01 11:21:42;;;;;;;8.02;6.65;;;16.20;99.90;;;;;;5095894;28;20486;-85
2023/06/01 11:24:18;;;;;;;8.30;7.53;;;16.10;99.90;;;;;;5094741;28;20082;-85
2023/06/01 11:26:49;;;;;;;11.82;7.10;;;16.10;99.90;;;;;;5095358;28;20027;-84
2023/06/01 11:29:16;;;;;;;;;;;16.10;99.90;;;;;;5096037;28;20024;-84
2023/06/01 11:31:47;;;;;;;9.75;7.30;;;16.10;99.90;;;;;;5094871;28;19915;-84
2023/06/01 11:34:16;;;;;;;9.88;7.45;;;15.90;99.90;;;;;;5095339;28;20024;-85
2023/06/01 11:36:44;;;;;;;12.25;7.93;;;15.90;99.90;;;;;;5095422;28;20095;-85
2023/06/01 11:39:21;;;;;;;15.48;8.18;;;16.10;99.90;;;;;;5094218;28;20024;-84
2023/06/01 11:41:48;;;;;;;12.95;7.95;;;16.40;99.90;;;;;;5095473;28;20051;-84
2023/06/01 11:44:14;;;;;;;17.02;7.60;;;16.40;99.90;;;;;;5095167;28;20028;-84
2023/06/01 11:46:56;;;;;;;10.35;8.73;;;16.30;99.90;;;;;;5094206;28;20491;-85
2023/06/01 11:49:23;;;;;;;11.38;8.43;;;16.40;99.90;;;;;;5094582;28;20034;-85
2023/06/01 11:51:51;;;;;;;16.60;7.97;;;16.50;99.90;;;;;;5094264;28;20379;-84
2023/06/01 11:54:16;;;;;;;20.75;7.78;;;16.50;99.90;;;;;;5094742;28;20052;-84
2023/06/01 11:56:43;;;;;;;12.75;7.90;;;16.50;99.90;;;;;;5094715;28;20390;-84
2023/06/01 11:59:09;;;;;;;12.00;7.43;;;16.60;99.90;;;;;;5093918;28;20032;-84
2023/06/01 12:01:38;;;;;;;12.05;8.43;;;16.70;99.90;;;;;;5094555;28;20024;-84
2023/06/01 12:04:05;;;;;;;10.15;7.75;;;16.30;99.90;;;;;;5094452;28;20111;-85
2023/06/01 12:06:31;;;;;;;15.52;7.30;;;16.70;99.90;;;;;;5093936;28;20020;-85
2023/06/01 12:08:57;;;;;;;17.27;8.07;;;16.80;99.90;;;;;;5094735;28;20027;-84
2023/06/01 12:11:29;;;;;;;10.02;7.97;;;16.90;99.90;;;;;;5094838;28;20340;-85
2023/06/01 12:13:55;;;;;;;13.50;7.95;;;17.50;99.90;;;;;;5097558;28;20028;-85
2023/06/01 12:16:21;;;;;;;17.85;8.48;;;16.80;99.90;;;;;;5096079;28;20024;-85
2023/06/01 12:18:47;;;;;;;10.45;7.78;;;17.60;99.90;;;;;;5094093;28;20034;-84
2023/06/01 12:21:13;;;;;;;8.77;7.20;;;16.90;99.90;;;;;;5093485;28;20020;-85
2023/06/01 12:23:39;;;;;;;9.82;7.03;;;16.90;99.90;;;;;;5094357;28;20056;-84
2023/06/01 12:26:06;;;;;;;18.98;7.60;;;16.90;99.90;;;;;;5094402;28;20067;-84
2023/06/01 12:28:53;;;;;;;9.95;7.10;;;17.00;99.90;;;;;;5093516;28;20452;-84
2023/06/01 12:31:19;;;;;;;12.25;8.40;;;17.10;99.90;;;;;;5094129;28;20024;-84
2023/06/01 12:33:45;;;;;;;14.10;7.43;;;17.10;99.90;;;;;;5093533;28;20032;-84
2023/06/01 12:36:29;;;;;;;13.75;7.97;;;17.20;99.90;;;;;;5093958;28;20055;-84
2023/06/01 12:38:55;;;;;;;12.07;7.85;;;17.20;99.90;;;;;;5094120;28;20038;-84
2023/06/01 12:41:21;;;;;;;11.73;7.53;;;17.20;99.90;;;;;;5093060;28;20053;-85
2023/06/01 12:43:49;;;;;;;10.57;6.75;;;17.30;99.90;;;;;;5094061;28;20089;-84
2023/06/01 12:46:26;;;;;;;13.35;7.00;;;17.30;99.90;;;;;;5093973;28;20035;-84
2023/06/01 12:48:53;;;;;;;8.95;6.78;;;17.40;99.90;;;;;;5093457;28;20077;-85
2023/06/01 12:51:21;;;;;;;9.80;6.35;;;17.40;99.90;;;;;;5093686;28;20086;-84